Kempner, Texas
Current Conditions -  °F | °C
As of 10:55 AM on Wednesday 22 Oct 2014 (Local Time) from KLZZ Reporting Station
Clear Clear  
Wind Chill: 71°   Ceiling: Unl
Heat Index: 71°   Visibility: 10mi
Dew Point: 62°   Wind: 3mph
Humidity: 73%   Direction: 110°ESE
Pressure: 30.16"   Gusts: NA
Location:  31.08°N, 98°W
Report Text: KLZZ 221555Z AUTO 11003KT 10SM CLR 22/17 A3016 RMK AO2 T02150165
Loading
Personal Weather Stations






























Interactive Weather Map
Tropical Storm Tracking
New forecast layout! Learn more

10-Day Weather Forecast

Advertisements
Track Severe Weather on mobile